Terminal Aerodrome Forecast
Issued by NWS

Home | Current Version | Previous Version | Text Only | Print | Product List | Glossary On
Versions: 1 2 3 4 5 6 7 8 9 10 11 12 13 14 15
000
FTUS43 KEAX 162300
TAFMKC
TAF
KMKC 162321Z 1700/1724 12004KT P6SM SCT045 SCT250
     FM171500 16007KT P6SM SCT040 BKN200
     FM172100 15005KT P6SM VCTS SCT035CB BKN080=

USA.gov is the U.S. government's official web portal to all federal, state and local government web resources and services.